createdAt,value
2017-10-31T00:01:51.082Z,21.68
2017-10-31T00:03:51.912Z,21.68
2017-10-31T00:05:52.825Z,21.68
2017-10-31T00:07:53.649Z,21.68
2017-10-31T00:09:54.481Z,21.68
2017-10-31T00:11:55.373Z,21.68
2017-10-31T00:13:56.225Z,21.68
2017-10-31T00:15:57.053Z,21.67
2017-10-31T00:17:57.913Z,21.67
2017-10-31T00:19:58.736Z,21.67
2017-10-31T00:21:59.552Z,21.67
2017-10-31T00:24:00.437Z,21.67
2017-10-31T00:26:01.264Z,21.66
2017-10-31T00:28:02.114Z,21.67
2017-10-31T00:30:02.993Z,21.67
2017-10-31T00:32:03.852Z,21.66
2017-10-31T00:34:04.861Z,21.66
2017-10-31T00:36:05.721Z,21.66
2017-10-31T00:38:13.713Z,21.66
2017-10-31T00:40:14.561Z,21.65
2017-10-31T00:42:15.414Z,21.65
2017-10-31T00:44:16.265Z,21.64
2017-10-31T00:46:17.096Z,21.65
2017-10-31T00:48:17.932Z,21.65
2017-10-31T00:50:18.756Z,21.65
2017-10-31T00:52:19.593Z,21.65
2017-10-31T00:54:20.441Z,21.65
2017-10-31T00:56:21.265Z,21.65
2017-10-31T00:58:22.096Z,21.65
2017-10-31T01:00:22.956Z,21.65
2017-10-31T01:02:23.781Z,21.64
2017-10-31T01:04:24.613Z,21.65
2017-10-31T01:06:25.480Z,21.64
2017-10-31T01:08:26.302Z,21.64
2017-10-31T01:10:27.208Z,21.65
2017-10-31T01:12:28.060Z,21.65
2017-10-31T01:14:28.900Z,21.65
2017-10-31T01:16:29.716Z,21.64
2017-10-31T01:18:30.553Z,21.64
2017-10-31T01:20:31.433Z,21.64
2017-10-31T01:22:32.291Z,21.64
2017-10-31T01:24:33.150Z,21.64
2017-10-31T01:26:33.988Z,21.63
2017-10-31T01:28:34.825Z,21.63
2017-10-31T01:30:35.709Z,21.63
2017-10-31T01:32:36.540Z,21.63
2017-10-31T01:34:37.576Z,21.63
2017-10-31T01:36:38.431Z,21.63
2017-10-31T01:38:39.271Z,21.63
2017-10-31T01:40:40.099Z,21.63
2017-10-31T01:42:40.999Z,21.63
2017-10-31T01:44:41.832Z,21.63
2017-10-31T01:46:42.684Z,21.64
2017-10-31T01:48:43.544Z,21.63
2017-10-31T01:50:44.426Z,21.63
2017-10-31T01:52:45.248Z,21.63
2017-10-31T01:54:46.096Z,21.63
2017-10-31T01:56:46.920Z,21.64
2017-10-31T01:58:47.740Z,21.63
2017-10-31T02:00:48.620Z,21.63
2017-10-31T02:02:49.448Z,21.63
2017-10-31T02:04:50.283Z,21.63
2017-10-31T02:06:51.162Z,21.62
2017-10-31T02:08:52.001Z,21.63
2017-10-31T02:10:52.858Z,21.63
2017-10-31T02:12:53.720Z,21.63
2017-10-31T02:14:54.550Z,21.62
2017-10-31T02:16:55.408Z,21.62
2017-10-31T02:18:56.288Z,21.62
2017-10-31T02:20:57.139Z,21.62
2017-10-31T02:22:57.979Z,21.61
2017-10-31T02:24:58.872Z,21.61
2017-10-31T02:26:59.733Z,21.62
2017-10-31T02:29:00.584Z,21.62
2017-10-31T02:31:01.482Z,21.62
2017-10-31T02:33:02.377Z,21.61
2017-10-31T02:35:03.396Z,21.61
2017-10-31T02:37:04.267Z,21.61
2017-10-31T02:39:20.496Z,21.61
2017-10-31T02:41:21.336Z,21.60
2017-10-31T02:43:22.214Z,21.60
2017-10-31T02:45:23.122Z,21.60
2017-10-31T02:47:23.993Z,21.60
2017-10-31T02:49:24.848Z,21.60
2017-10-31T02:51:25.728Z,21.60
2017-10-31T02:53:26.579Z,21.60
2017-10-31T02:55:27.453Z,21.60
2017-10-31T02:57:28.360Z,21.60
2017-10-31T02:59:29.219Z,21.60
2017-10-31T03:01:30.097Z,21.60
2017-10-31T03:03:30.920Z,21.59
2017-10-31T03:05:31.785Z,21.60
2017-10-31T03:07:32.656Z,21.60
2017-10-31T03:09:33.488Z,21.60
2017-10-31T03:11:34.340Z,21.59
2017-10-31T03:13:35.248Z,21.59
2017-10-31T03:15:36.106Z,21.60
2017-10-31T03:17:36.955Z,21.60
2017-10-31T03:19:37.824Z,21.60
2017-10-31T03:21:38.672Z,21.60
2017-10-31T03:23:39.520Z,21.59
2017-10-31T03:25:40.381Z,21.59
2017-10-31T03:27:41.222Z,21.59
2017-10-31T03:29:42.058Z,21.58
2017-10-31T03:31:42.923Z,21.59
2017-10-31T03:33:43.760Z,21.58
2017-10-31T03:35:44.918Z,21.59
2017-10-31T03:37:45.780Z,21.58
2017-10-31T03:39:46.617Z,21.58
2017-10-31T03:41:47.464Z,21.58
2017-10-31T03:43:48.338Z,21.58
2017-10-31T03:45:49.209Z,21.58
2017-10-31T03:47:50.103Z,21.58
2017-10-31T03:49:51.021Z,21.58
2017-10-31T03:51:51.877Z,21.58
2017-10-31T03:53:52.756Z,21.57
2017-10-31T03:55:53.625Z,21.58
2017-10-31T03:57:54.468Z,21.59
2017-10-31T03:59:55.327Z,21.59
2017-10-31T04:01:56.288Z,21.58
2017-10-31T04:03:57.133Z,21.58
2017-10-31T04:05:58.017Z,21.58
2017-10-31T04:07:58.895Z,21.58
2017-10-31T04:09:59.720Z,21.58
2017-10-31T04:12:00.549Z,21.58
2017-10-31T04:14:01.404Z,21.57
2017-10-31T04:16:02.275Z,21.58
2017-10-31T04:18:03.124Z,21.57
2017-10-31T04:20:03.967Z,21.58
2017-10-31T04:22:04.814Z,21.58
2017-10-31T04:24:05.656Z,21.58
2017-10-31T04:26:06.516Z,21.58
2017-10-31T04:28:07.353Z,21.58
2017-10-31T04:30:08.176Z,21.58
2017-10-31T04:32:09.033Z,21.57
2017-10-31T04:34:09.873Z,21.57
2017-10-31T04:36:11.130Z,21.57
2017-10-31T04:38:11.990Z,21.57
2017-10-31T04:40:12.819Z,21.56
2017-10-31T04:42:13.676Z,21.56
2017-10-31T04:44:14.528Z,21.56
2017-10-31T04:46:15.352Z,21.56
2017-10-31T04:48:16.254Z,21.56
2017-10-31T04:50:17.120Z,21.56
2017-10-31T04:52:17.948Z,21.56
2017-10-31T04:54:18.803Z,21.56
2017-10-31T04:56:19.705Z,21.56
2017-10-31T04:58:20.626Z,21.56
2017-10-31T05:00:21.736Z,21.56
2017-10-31T05:02:22.593Z,21.55
2017-10-31T05:04:23.436Z,21.55
2017-10-31T05:06:24.332Z,21.55
2017-10-31T05:08:25.205Z,21.55
2017-10-31T05:10:26.033Z,21.55
2017-10-31T05:12:26.857Z,21.55
2017-10-31T05:14:27.708Z,21.55
2017-10-31T05:16:28.584Z,21.55
2017-10-31T05:18:29.417Z,21.55
2017-10-31T05:20:30.691Z,21.55
2017-10-31T05:22:31.525Z,21.55
2017-10-31T05:24:32.355Z,21.55
2017-10-31T05:26:33.200Z,21.55
2017-10-31T05:28:34.227Z,21.54
2017-10-31T05:30:35.049Z,21.55
2017-10-31T05:32:35.889Z,21.55
2017-10-31T05:34:36.713Z,21.54
2017-10-31T05:36:37.764Z,21.54
2017-10-31T05:38:38.615Z,21.54
2017-10-31T05:40:39.424Z,21.54
2017-10-31T05:42:40.249Z,21.54
2017-10-31T05:44:41.096Z,21.54
2017-10-31T05:46:41.924Z,21.53
2017-10-31T05:48:42.744Z,21.53
2017-10-31T05:50:43.599Z,21.53
2017-10-31T05:52:44.484Z,21.53
2017-10-31T05:54:45.325Z,21.53
2017-10-31T05:56:46.172Z,21.53
2017-10-31T05:58:47.080Z,21.53
2017-10-31T06:00:47.903Z,21.53
2017-10-31T06:02:48.768Z,21.52
2017-10-31T06:04:49.595Z,21.53
2017-10-31T06:06:50.421Z,21.53
2017-10-31T06:08:51.268Z,21.53
2017-10-31T06:10:52.127Z,21.53
2017-10-31T06:12:52.977Z,21.53
2017-10-31T06:14:53.834Z,21.52
2017-10-31T06:16:54.674Z,21.52
2017-10-31T06:18:55.517Z,21.52
2017-10-31T06:20:56.368Z,21.52
2017-10-31T06:25:43.606Z,21.52
2017-10-31T06:27:51.704Z,21.52
2017-10-31T06:29:59.741Z,21.51
2017-10-31T06:32:07.913Z,21.51
2017-10-31T06:34:10.368Z,21.50
2017-10-31T06:36:12.861Z,21.51
2017-10-31T06:38:15.544Z,21.51
2017-10-31T06:40:18.004Z,21.50
2017-10-31T06:42:20.453Z,21.51
2017-10-31T06:44:22.907Z,21.50
2017-10-31T06:46:25.417Z,21.51
2017-10-31T06:48:27.888Z,21.51
2017-10-31T06:50:30.337Z,21.51
2017-10-31T06:52:32.801Z,21.51
2017-10-31T06:54:35.244Z,21.52
2017-10-31T06:56:37.694Z,21.51
2017-10-31T06:58:40.286Z,21.52
2017-10-31T07:00:42.822Z,21.52
2017-10-31T07:02:45.268Z,21.52
2017-10-31T07:04:47.739Z,21.53
2017-10-31T07:06:50.223Z,21.52
2017-10-31T07:08:52.656Z,21.52
2017-10-31T07:10:55.129Z,21.52
2017-10-31T07:12:57.571Z,21.54
2017-10-31T07:15:00.007Z,21.53
2017-10-31T07:17:02.496Z,21.54
2017-10-31T07:19:04.944Z,21.54
2017-10-31T07:21:07.413Z,21.54
2017-10-31T07:23:09.997Z,21.54
2017-10-31T07:25:12.469Z,21.54
2017-10-31T07:27:14.911Z,21.54
2017-10-31T07:29:17.364Z,21.55
2017-10-31T07:31:19.813Z,21.55
2017-10-31T07:33:22.304Z,21.55
2017-10-31T07:35:24.783Z,21.55
2017-10-31T07:37:27.248Z,21.56
2017-10-31T07:39:29.804Z,21.55
2017-10-31T07:41:32.347Z,21.55
2017-10-31T07:43:34.814Z,21.55
2017-10-31T07:45:37.360Z,21.56
2017-10-31T07:47:39.860Z,21.56
2017-10-31T07:49:42.314Z,21.56
2017-10-31T07:51:44.755Z,21.56
2017-10-31T07:53:47.229Z,21.56
2017-10-31T07:55:49.679Z,21.57
2017-10-31T07:57:52.172Z,21.56
2017-10-31T07:59:54.637Z,21.57
2017-10-31T08:01:57.120Z,21.57
2017-10-31T08:03:59.575Z,21.58
2017-10-31T08:06:02.030Z,21.58
2017-10-31T08:08:04.468Z,21.58
2017-10-31T08:10:06.909Z,21.59
2017-10-31T08:12:09.369Z,21.59
2017-10-31T08:14:11.841Z,21.60
2017-10-31T08:16:14.333Z,21.59
2017-10-31T08:18:16.944Z,21.60
2017-10-31T08:20:19.377Z,21.60
2017-10-31T08:22:21.869Z,21.60
2017-10-31T08:24:24.392Z,21.61
2017-10-31T08:26:26.834Z,21.61
2017-10-31T08:28:29.285Z,21.61
2017-10-31T08:30:31.742Z,21.62
2017-10-31T08:32:34.281Z,21.62
2017-10-31T08:34:36.750Z,21.63
2017-10-31T08:36:39.320Z,21.63
2017-10-31T08:38:41.758Z,21.62
2017-10-31T08:40:44.354Z,21.63
2017-10-31T08:42:46.820Z,21.63
2017-10-31T08:44:49.308Z,21.63
2017-10-31T08:46:51.775Z,21.63
2017-10-31T08:48:54.359Z,21.63
2017-10-31T08:50:56.835Z,21.63
2017-10-31T08:52:59.282Z,21.64
2017-10-31T08:55:01.753Z,21.64
2017-10-31T08:57:04.193Z,21.64
2017-10-31T08:59:06.624Z,21.64
2017-10-31T09:01:10.084Z,21.65
2017-10-31T09:03:12.561Z,21.65
2017-10-31T09:05:14.992Z,21.65
2017-10-31T09:07:17.457Z,21.65
2017-10-31T09:09:19.973Z,21.66
2017-10-31T09:11:22.438Z,21.66
2017-10-31T09:13:24.908Z,21.67
2017-10-31T09:15:27.342Z,21.67
2017-10-31T09:17:29.782Z,21.68
2017-10-31T09:19:32.249Z,21.68
2017-10-31T09:21:34.685Z,21.69
2017-10-31T09:23:37.123Z,21.69
2017-10-31T09:25:39.585Z,21.69
2017-10-31T09:27:42.025Z,21.69
2017-10-31T09:29:44.456Z,21.69
2017-10-31T09:31:46.931Z,21.70
2017-10-31T09:33:49.363Z,21.70
2017-10-31T09:35:51.856Z,21.70
2017-10-31T09:37:54.360Z,21.71
2017-10-31T09:39:56.795Z,21.72
2017-10-31T09:41:59.405Z,21.72
2017-10-31T09:44:01.967Z,21.72
2017-10-31T09:46:04.417Z,21.73
2017-10-31T09:48:06.917Z,21.74
2017-10-31T09:50:09.483Z,21.73
2017-10-31T09:52:11.916Z,21.74
2017-10-31T09:54:14.350Z,21.74
2017-10-31T09:56:16.805Z,21.75
2017-10-31T09:58:19.250Z,21.75
2017-10-31T10:00:21.685Z,21.76
2017-10-31T10:02:24.149Z,21.76
2017-10-31T10:04:26.596Z,21.77
2017-10-31T10:06:29.132Z,21.77
2017-10-31T10:08:31.611Z,21.78
2017-10-31T10:10:34.044Z,21.78
2017-10-31T10:12:36.472Z,21.78
2017-10-31T10:14:39.010Z,21.79
2017-10-31T10:16:41.479Z,21.78
2017-10-31T10:18:43.933Z,21.79
2017-10-31T10:20:46.429Z,21.80
2017-10-31T10:22:48.871Z,21.80
2017-10-31T10:24:51.392Z,21.81
2017-10-31T10:26:53.854Z,21.80
2017-10-31T10:28:56.317Z,21.81
2017-10-31T10:30:58.799Z,21.81
2017-10-31T10:33:01.256Z,21.82
2017-10-31T10:35:03.688Z,21.83
2017-10-31T10:37:06.129Z,21.83
2017-10-31T10:39:08.589Z,21.83
2017-10-31T10:41:11.029Z,21.84
2017-10-31T10:43:13.820Z,21.84
2017-10-31T10:45:16.291Z,21.85
2017-10-31T10:47:18.735Z,21.85
2017-10-31T10:49:21.170Z,21.85
2017-10-31T10:51:23.628Z,21.85
2017-10-31T10:53:26.175Z,21.86
2017-10-31T10:55:28.618Z,21.86
2017-10-31T10:57:31.082Z,21.87
2017-10-31T10:59:33.560Z,21.88
2017-10-31T11:01:36.024Z,21.88
2017-10-31T11:03:38.493Z,21.88
2017-10-31T11:05:40.973Z,21.89
2017-10-31T11:07:43.411Z,21.89
2017-10-31T11:09:45.884Z,21.88
2017-10-31T11:11:48.321Z,21.89
2017-10-31T11:13:50.764Z,21.89
2017-10-31T11:15:53.228Z,21.89
2017-10-31T11:17:55.665Z,21.90
2017-10-31T11:19:58.096Z,21.90
2017-10-31T11:22:00.630Z,21.90
2017-10-31T11:24:03.076Z,21.90
2017-10-31T11:26:05.514Z,21.91
2017-10-31T11:28:07.986Z,21.91
2017-10-31T11:30:10.494Z,21.91
2017-10-31T11:32:12.985Z,21.92
2017-10-31T11:34:15.457Z,21.92
2017-10-31T11:36:17.890Z,21.92
2017-10-31T11:38:20.348Z,21.93
2017-10-31T11:40:23.710Z,21.93
2017-10-31T11:42:26.163Z,21.93
2017-10-31T11:44:28.743Z,21.93
2017-10-31T11:46:31.221Z,21.93
2017-10-31T11:48:33.662Z,21.93
2017-10-31T11:50:36.094Z,21.93
2017-10-31T11:52:38.736Z,21.93
2017-10-31T11:54:41.186Z,21.94
2017-10-31T11:56:43.658Z,21.93
2017-10-31T11:58:46.226Z,21.93
2017-10-31T12:00:48.668Z,21.94
2017-10-31T12:02:51.096Z,21.93
2017-10-31T12:04:53.562Z,21.94
2017-10-31T12:06:56.001Z,21.94
2017-10-31T12:08:58.470Z,21.94
2017-10-31T12:11:01.036Z,21.93
2017-10-31T12:13:03.479Z,21.94
2017-10-31T12:15:05.981Z,21.93
2017-10-31T12:17:08.544Z,21.94
2017-10-31T12:19:10.990Z,21.94
2017-10-31T12:21:13.429Z,21.94
2017-10-31T12:23:15.885Z,21.94
2017-10-31T12:25:18.341Z,21.94
2017-10-31T12:27:20.824Z,21.93
2017-10-31T12:29:23.286Z,21.94
2017-10-31T12:31:25.885Z,21.94
2017-10-31T12:33:28.335Z,21.94
2017-10-31T12:35:30.884Z,21.94
2017-10-31T12:37:33.322Z,21.94
2017-10-31T12:39:35.761Z,21.94
2017-10-31T12:41:38.274Z,21.95
2017-10-31T12:43:40.706Z,21.95
2017-10-31T12:45:43.193Z,21.95
2017-10-31T12:47:45.665Z,21.94
2017-10-31T12:49:48.102Z,21.94
2017-10-31T12:51:50.544Z,21.95
2017-10-31T12:53:53.018Z,21.95
2017-10-31T12:55:55.491Z,21.94
2017-10-31T12:57:58.911Z,21.94
2017-10-31T13:00:01.365Z,21.94
2017-10-31T13:02:03.878Z,21.94
2017-10-31T13:04:06.396Z,21.94
2017-10-31T13:06:08.968Z,21.94
2017-10-31T13:08:11.441Z,21.93
2017-10-31T13:10:13.888Z,21.94
2017-10-31T13:12:16.349Z,21.94
2017-10-31T13:14:18.784Z,21.94
2017-10-31T13:16:21.318Z,21.94
2017-10-31T13:18:23.777Z,21.94
2017-10-31T13:20:26.212Z,21.93
2017-10-31T13:22:28.650Z,21.93
2017-10-31T13:24:31.202Z,21.94
2017-10-31T13:26:35.140Z,21.93
2017-10-31T13:28:38.214Z,21.93
2017-10-31T13:30:41.387Z,21.93
2017-10-31T13:32:44.489Z,21.93
2017-10-31T13:34:47.474Z,21.92
2017-10-31T13:36:50.615Z,21.92
2017-10-31T13:38:53.744Z,21.92
2017-10-31T13:40:56.933Z,21.92
2017-10-31T13:42:59.925Z,21.92
2017-10-31T13:45:02.460Z,21.91
2017-10-31T13:47:05.706Z,21.91
2017-10-31T13:49:08.885Z,21.91
2017-10-31T13:51:11.730Z,21.91
2017-10-31T13:53:14.190Z,21.91
2017-10-31T13:55:16.757Z,21.90
2017-10-31T13:57:19.190Z,21.90
2017-10-31T13:59:21.689Z,21.90
2017-10-31T14:01:24.168Z,21.90
2017-10-31T14:03:27.164Z,21.90
2017-10-31T14:05:29.597Z,21.90
2017-10-31T14:07:32.826Z,21.89
2017-10-31T14:09:36.081Z,21.90
2017-10-31T14:11:39.520Z,21.89
2017-10-31T14:13:41.972Z,21.89
2017-10-31T14:15:44.427Z,21.88
2017-10-31T14:17:46.872Z,21.88
2017-10-31T14:19:49.437Z,21.87
2017-10-31T14:21:52.673Z,21.87
2017-10-31T14:23:55.106Z,21.87
2017-10-31T14:25:57.579Z,21.87
2017-10-31T14:28:00.048Z,21.86
2017-10-31T14:30:02.491Z,21.86
2017-10-31T14:32:05.003Z,21.85
2017-10-31T14:34:07.437Z,21.86
2017-10-31T14:36:09.878Z,21.85
2017-10-31T14:38:12.406Z,21.85
2017-10-31T14:40:14.851Z,21.84
2017-10-31T14:42:17.323Z,21.84
2017-10-31T14:44:19.780Z,21.83
2017-10-31T14:46:22.292Z,21.83
2017-10-31T14:48:24.821Z,21.83
2017-10-31T14:50:27.324Z,21.83
2017-10-31T14:52:29.762Z,21.82
2017-10-31T14:54:32.209Z,21.82
2017-10-31T14:56:34.685Z,21.82
2017-10-31T14:58:37.272Z,21.81
2017-10-31T15:00:39.728Z,21.80
2017-10-31T15:02:42.256Z,21.81
2017-10-31T15:04:44.693Z,21.80
2017-10-31T15:06:47.193Z,21.80
2017-10-31T15:08:49.660Z,21.80
2017-10-31T15:10:52.094Z,21.80
2017-10-31T15:12:54.618Z,21.79
2017-10-31T15:14:57.094Z,21.80
2017-10-31T15:16:59.537Z,21.79
2017-10-31T15:19:01.973Z,21.78
2017-10-31T15:21:04.430Z,21.78
2017-10-31T15:23:06.957Z,21.78
2017-10-31T15:25:09.397Z,21.78
2017-10-31T15:27:11.855Z,21.78
2017-10-31T15:29:14.386Z,21.77
2017-10-31T15:31:16.837Z,21.77
2017-10-31T15:33:19.408Z,21.77
2017-10-31T15:35:21.858Z,21.77
2017-10-31T15:37:24.307Z,21.76
2017-10-31T15:39:26.781Z,21.76
2017-10-31T15:41:29.212Z,21.76
2017-10-31T15:43:31.645Z,21.75
2017-10-31T15:45:34.126Z,21.76
2017-10-31T15:47:36.563Z,21.76
2017-10-31T15:49:39.124Z,21.75
2017-10-31T15:51:41.642Z,21.75
2017-10-31T15:53:44.126Z,21.74
2017-10-31T15:55:46.557Z,21.74
2017-10-31T15:57:49.165Z,21.74
2017-10-31T15:59:51.613Z,21.73
2017-10-31T16:01:54.052Z,21.74
2017-10-31T16:03:56.534Z,21.73
2017-10-31T16:05:58.977Z,21.72
2017-10-31T16:08:01.499Z,21.72
2017-10-31T16:10:04.095Z,21.72
2017-10-31T16:12:06.559Z,21.71
2017-10-31T16:14:09.056Z,21.72
2017-10-31T16:16:11.521Z,21.72
2017-10-31T16:18:13.982Z,21.72
2017-10-31T16:20:16.420Z,21.71
2017-10-31T16:22:18.885Z,21.71
2017-10-31T16:24:21.321Z,21.71
2017-10-31T16:26:23.787Z,21.71
2017-10-31T16:28:26.252Z,21.70
2017-10-31T16:30:28.758Z,21.70
2017-10-31T16:32:31.192Z,21.70
2017-10-31T16:34:33.657Z,21.70
2017-10-31T16:36:36.094Z,21.69
2017-10-31T16:38:38.566Z,21.69
2017-10-31T16:40:41.033Z,21.69
2017-10-31T16:42:43.468Z,21.69
2017-10-31T16:44:45.964Z,21.69
2017-10-31T16:46:48.421Z,21.69
2017-10-31T16:48:50.910Z,21.68
2017-10-31T16:50:53.445Z,21.69
2017-10-31T16:52:56.011Z,21.68
2017-10-31T16:54:58.563Z,21.68
2017-10-31T16:57:00.996Z,21.68
2017-10-31T16:59:03.456Z,21.68
2017-10-31T17:01:05.888Z,21.68
2017-10-31T17:03:08.394Z,21.67
2017-10-31T17:05:10.855Z,21.68
2017-10-31T17:07:13.298Z,21.67
2017-10-31T17:09:15.745Z,21.67
2017-10-31T17:11:18.226Z,21.67
2017-10-31T17:13:20.673Z,21.67
2017-10-31T17:15:23.184Z,21.66
2017-10-31T17:17:25.712Z,21.67
2017-10-31T17:19:28.163Z,21.67
2017-10-31T17:21:30.596Z,21.66
2017-10-31T17:23:33.059Z,21.67
2017-10-31T17:25:35.510Z,21.66
2017-10-31T17:27:37.951Z,21.66
2017-10-31T17:29:40.497Z,21.66
2017-10-31T17:31:42.950Z,21.66
2017-10-31T17:33:45.384Z,21.66
2017-10-31T17:35:47.868Z,21.66
2017-10-31T17:37:50.398Z,21.66
2017-10-31T17:39:52.893Z,21.65
2017-10-31T17:41:55.354Z,21.66
2017-10-31T17:43:57.783Z,21.66
2017-10-31T17:46:00.272Z,21.66
2017-10-31T17:48:02.733Z,21.66
2017-10-31T17:50:05.208Z,21.65
2017-10-31T17:52:07.761Z,21.65
2017-10-31T17:54:10.220Z,21.66
2017-10-31T17:56:12.652Z,21.66
2017-10-31T17:58:15.093Z,21.65
2017-10-31T18:00:17.552Z,21.65
2017-10-31T18:02:19.999Z,21.65
2017-10-31T18:04:22.514Z,21.65
2017-10-31T18:06:24.992Z,21.66
2017-10-31T18:08:27.453Z,21.65
2017-10-31T18:10:29.896Z,21.65
2017-10-31T18:12:32.372Z,21.65
2017-10-31T18:14:34.814Z,21.64
2017-10-31T18:16:37.329Z,21.65
2017-10-31T18:18:39.838Z,21.65
2017-10-31T18:20:42.284Z,21.65
2017-10-31T18:22:44.733Z,21.65
2017-10-31T18:24:47.184Z,21.65
2017-10-31T18:26:49.677Z,21.65
2017-10-31T18:28:52.219Z,21.64
2017-10-31T18:30:54.692Z,21.65
2017-10-31T18:32:57.130Z,21.65
2017-10-31T18:34:59.637Z,21.64
2017-10-31T18:37:02.550Z,21.64
2017-10-31T18:39:05.021Z,21.64
2017-10-31T18:41:07.475Z,21.64
2017-10-31T18:43:09.941Z,21.65
2017-10-31T18:45:12.418Z,21.64
2017-10-31T18:47:14.888Z,21.63
2017-10-31T18:49:17.365Z,21.64
2017-10-31T18:51:19.807Z,21.64
2017-10-31T18:53:22.321Z,21.64
2017-10-31T18:55:24.860Z,21.64
2017-10-31T18:57:27.325Z,21.64
2017-10-31T18:59:29.821Z,21.63
2017-10-31T19:01:32.382Z,21.64
2017-10-31T19:03:34.845Z,21.63
2017-10-31T19:05:37.336Z,21.63
2017-10-31T19:07:39.893Z,21.63
2017-10-31T19:09:42.353Z,21.63
2017-10-31T19:11:44.800Z,21.64
2017-10-31T19:13:47.311Z,21.63
2017-10-31T19:15:49.789Z,21.64
2017-10-31T19:17:52.234Z,21.63
2017-10-31T19:19:54.698Z,21.63
2017-10-31T19:21:57.154Z,21.63
2017-10-31T19:23:59.589Z,21.64
2017-10-31T19:26:02.065Z,21.63
2017-10-31T19:28:04.602Z,21.63
2017-10-31T19:30:07.041Z,21.63
2017-10-31T19:32:09.501Z,21.63
2017-10-31T19:34:11.949Z,21.63
2017-10-31T19:36:14.389Z,21.63
2017-10-31T19:38:16.849Z,21.63
2017-10-31T19:40:19.284Z,21.63
2017-10-31T19:42:22.041Z,21.64
2017-10-31T19:44:24.940Z,21.63
2017-10-31T19:46:27.668Z,21.63
2017-10-31T19:48:30.245Z,21.63
2017-10-31T19:50:32.750Z,21.63
2017-10-31T19:52:36.239Z,21.63
2017-10-31T19:54:39.771Z,21.63
2017-10-31T19:56:42.253Z,21.64
2017-10-31T19:58:44.736Z,21.63
2017-10-31T20:00:47.197Z,21.63
2017-10-31T20:02:49.776Z,21.63
2017-10-31T20:04:52.766Z,21.63
2017-10-31T20:06:55.330Z,21.63
2017-10-31T20:08:57.810Z,21.63
2017-10-31T20:11:00.634Z,21.63
2017-10-31T20:13:04.156Z,21.63
2017-10-31T20:15:07.008Z,21.63
2017-10-31T20:17:10.753Z,21.63
2017-10-31T20:19:14.380Z,21.63
2017-10-31T20:21:17.286Z,21.63
2017-10-31T20:23:20.855Z,21.63
2017-10-31T20:25:23.764Z,21.63
2017-10-31T20:27:26.760Z,21.63
2017-10-31T20:29:29.252Z,21.63
2017-10-31T20:31:31.728Z,21.63
2017-10-31T20:33:34.192Z,21.63
2017-10-31T20:35:36.673Z,21.63
2017-10-31T20:37:39.146Z,21.63
2017-10-31T20:39:41.620Z,21.63
2017-10-31T20:41:44.054Z,21.63
2017-10-31T20:43:46.490Z,21.63
2017-10-31T20:45:49.021Z,21.63
2017-10-31T20:47:51.462Z,21.63
2017-10-31T20:49:53.952Z,21.63
2017-10-31T20:51:56.428Z,21.62
2017-10-31T20:53:58.954Z,21.62
2017-10-31T20:56:01.614Z,21.63
2017-10-31T20:58:04.082Z,21.62
2017-10-31T21:00:06.534Z,21.63
2017-10-31T21:02:09.101Z,21.62
2017-10-31T21:04:11.654Z,21.62
2017-10-31T21:06:14.205Z,21.63
2017-10-31T21:08:16.644Z,21.63
2017-10-31T21:10:19.103Z,21.63
2017-10-31T21:12:21.639Z,21.62
2017-10-31T21:14:24.072Z,21.62
2017-10-31T21:16:26.580Z,21.62
2017-10-31T21:18:29.025Z,21.62
2017-10-31T21:20:31.460Z,21.61
2017-10-31T21:22:33.935Z,21.62
2017-10-31T21:24:36.371Z,21.62
2017-10-31T21:26:38.816Z,21.62
2017-10-31T21:28:41.277Z,21.61
2017-10-31T21:30:43.779Z,21.62
2017-10-31T21:32:46.216Z,21.61
2017-10-31T21:34:48.683Z,21.61
2017-10-31T21:36:51.131Z,21.61
2017-10-31T21:38:53.649Z,21.61
2017-10-31T21:40:56.105Z,21.61
2017-10-31T21:42:58.545Z,21.62
2017-10-31T21:45:00.978Z,21.61
2017-10-31T21:47:03.439Z,21.61
2017-10-31T21:49:05.873Z,21.61
2017-10-31T21:51:08.316Z,21.60
2017-10-31T21:53:10.778Z,21.60
2017-10-31T21:55:13.309Z,21.61
2017-10-31T21:57:15.893Z,21.61
2017-10-31T21:59:18.353Z,21.61
2017-10-31T22:01:20.797Z,21.60
2017-10-31T22:03:24.183Z,21.60
2017-10-31T22:05:26.650Z,21.60
2017-10-31T22:07:29.098Z,21.60
2017-10-31T22:09:31.549Z,21.61
2017-10-31T22:11:34.011Z,21.60
2017-10-31T22:13:36.469Z,21.60
2017-10-31T22:15:38.913Z,21.60
2017-10-31T22:17:41.370Z,21.60
2017-10-31T22:19:43.816Z,21.60
2017-10-31T22:21:46.336Z,21.61
2017-10-31T22:23:48.821Z,21.60
2017-10-31T22:25:51.268Z,21.60
2017-10-31T22:27:53.717Z,21.60
2017-10-31T22:29:56.183Z,21.60
2017-10-31T22:31:58.656Z,21.60
2017-10-31T22:34:01.107Z,21.60
2017-10-31T22:36:03.617Z,21.59
2017-10-31T22:38:06.101Z,21.60
2017-10-31T22:40:08.564Z,21.60
2017-10-31T22:42:11.032Z,21.59
2017-10-31T22:44:13.474Z,21.59
2017-10-31T22:46:15.981Z,21.59
2017-10-31T22:48:18.557Z,21.59
2017-10-31T22:50:20.996Z,21.59
2017-10-31T22:52:23.433Z,21.59
2017-10-31T22:54:25.904Z,21.59
2017-10-31T22:56:28.346Z,21.59
2017-10-31T22:58:30.908Z,21.58
2017-10-31T23:00:33.374Z,21.58
2017-10-31T23:02:35.852Z,21.58
2017-10-31T23:04:38.292Z,21.57
2017-10-31T23:06:40.750Z,21.58
2017-10-31T23:08:43.184Z,21.57
2017-10-31T23:10:45.633Z,21.57
2017-10-31T23:12:48.196Z,21.57
2017-10-31T23:14:50.671Z,21.58
2017-10-31T23:16:53.100Z,21.57
2017-10-31T23:18:55.558Z,21.57
2017-10-31T23:20:58.005Z,21.57
2017-10-31T23:23:00.549Z,21.58
2017-10-31T23:25:03.126Z,21.57
2017-10-31T23:27:05.566Z,21.56
2017-10-31T23:29:08.077Z,21.56
2017-10-31T23:31:10.536Z,21.57
2017-10-31T23:33:12.971Z,21.57
2017-10-31T23:35:15.415Z,21.56
2017-10-31T23:37:17.942Z,21.56
2017-10-31T23:39:20.421Z,21.56
2017-10-31T23:41:22.859Z,21.56
2017-10-31T23:43:25.322Z,21.56
2017-10-31T23:45:27.773Z,21.56
2017-10-31T23:47:30.219Z,21.56
2017-10-31T23:49:32.683Z,21.56
2017-10-31T23:51:35.129Z,21.56
2017-10-31T23:53:37.588Z,21.55
2017-10-31T23:55:40.865Z,21.56
2017-10-31T23:57:43.310Z,21.56
2017-10-31T23:59:45.860Z,21.55
